createdAt,value
2018-09-05T00:04:13.951Z,18.35
2018-09-05T00:09:17.474Z,18.26
2018-09-05T00:14:21.100Z,18.24
2018-09-05T00:19:24.568Z,18.19
2018-09-05T00:24:28.126Z,18.09
2018-09-05T00:29:31.662Z,18.03
2018-09-05T00:34:41.734Z,18.00
2018-09-05T00:39:45.224Z,17.84
2018-09-05T00:44:48.778Z,17.77
2018-09-05T00:49:55.296Z,17.66
2018-09-05T00:54:58.881Z,17.60
2018-09-05T01:00:02.457Z,17.69
2018-09-05T01:05:06.028Z,17.59
2018-09-05T01:10:09.550Z,17.48
2018-09-05T01:15:13.062Z,17.39
2018-09-05T01:20:16.544Z,17.36
2018-09-05T01:25:20.015Z,17.34
2018-09-05T01:30:26.743Z,17.39
2018-09-05T01:35:30.253Z,17.37
2018-09-05T01:40:33.915Z,17.37
2018-09-05T01:45:37.491Z,17.25
2018-09-05T01:50:42.952Z,17.21
2018-09-05T01:55:46.508Z,17.16
2018-09-05T02:00:50.071Z,17.12
2018-09-05T02:05:53.646Z,17.07
2018-09-05T02:10:57.144Z,16.98
2018-09-05T02:16:00.619Z,16.87
2018-09-05T02:21:04.154Z,16.87
2018-09-05T02:26:07.708Z,16.93
2018-09-05T02:31:11.221Z,16.82
2018-09-05T02:36:14.723Z,16.73
2018-09-05T02:41:18.302Z,16.50
2018-09-05T02:46:22.084Z,16.67
2018-09-05T02:51:25.639Z,16.63
2018-09-05T02:56:29.117Z,16.53
2018-09-05T03:01:32.673Z,16.52
2018-09-05T03:06:36.218Z,16.61
2018-09-05T03:11:39.709Z,16.45
2018-09-05T03:16:43.240Z,16.34
2018-09-05T03:21:47.682Z,16.38
2018-09-05T03:26:51.277Z,16.28
2018-09-05T03:31:54.761Z,16.30
2018-09-05T03:36:58.293Z,16.15
2018-09-05T03:42:01.772Z,15.97
2018-09-05T03:47:05.335Z,16.14
2018-09-05T03:52:08.862Z,16.20
2018-09-05T03:57:12.367Z,16.09
2018-09-05T04:02:15.933Z,15.97
2018-09-05T04:07:19.469Z,15.93
2018-09-05T04:12:23.300Z,15.81
2018-09-05T04:17:26.851Z,15.75
2018-09-05T04:22:30.353Z,15.82
2018-09-05T04:27:33.886Z,15.79
2018-09-05T04:32:37.535Z,15.67
2018-09-05T04:37:41.126Z,15.83
2018-09-05T04:42:44.601Z,15.74
2018-09-05T04:47:48.157Z,15.76
2018-09-05T04:52:51.743Z,15.83
2018-09-05T04:57:55.241Z,15.79
2018-09-05T05:02:59.986Z,15.87
2018-09-05T05:08:03.532Z,15.89
2018-09-05T05:13:07.058Z,15.85
2018-09-05T05:18:10.494Z,15.86
2018-09-05T05:23:18.415Z,16.03
2018-09-05T05:28:21.934Z,16.05
2018-09-05T05:33:25.415Z,16.14
2018-09-05T05:38:28.875Z,16.19
2018-09-05T05:43:32.498Z,16.44
2018-09-05T05:48:35.928Z,16.44
2018-09-05T05:53:39.393Z,16.55
2018-09-05T05:58:42.896Z,16.54
2018-09-05T06:03:46.430Z,16.64
2018-09-05T06:08:49.921Z,16.70
2018-09-05T06:13:53.410Z,16.87
2018-09-05T06:18:56.906Z,17.09
2018-09-05T06:24:00.517Z,17.21
2018-09-05T06:29:04.967Z,17.30
2018-09-05T06:34:08.503Z,17.49
2018-09-05T06:39:12.093Z,17.62
2018-09-05T06:44:15.905Z,17.69
2018-09-05T06:49:19.454Z,17.80
2018-09-05T06:54:23.000Z,17.93
2018-09-05T06:59:26.653Z,17.98
2018-09-05T07:04:30.246Z,18.04
2018-09-05T07:09:33.929Z,18.10
2018-09-05T07:14:37.587Z,18.27
2018-09-05T07:19:41.134Z,18.36
2018-09-05T07:24:44.690Z,18.49
2018-09-05T07:29:48.206Z,18.62
2018-09-05T07:34:52.629Z,18.76
2018-09-05T07:39:56.235Z,18.83
2018-09-05T07:44:59.790Z,18.85
2018-09-05T07:50:03.681Z,18.95
2018-09-05T07:55:08.030Z,19.07
2018-09-05T08:00:11.575Z,19.20
2018-09-05T08:05:15.103Z,19.29
2018-09-05T08:10:18.605Z,19.41
2018-09-05T08:15:22.145Z,19.59
2018-09-05T08:20:25.806Z,19.69
2018-09-05T08:25:29.288Z,19.76
2018-09-05T08:30:32.786Z,19.93
2018-09-05T08:35:36.483Z,20.12
2018-09-05T08:40:39.810Z,20.32
2018-09-05T08:45:43.678Z,20.65
2018-09-05T08:50:47.806Z,20.77
2018-09-05T08:55:51.391Z,20.92
2018-09-05T09:00:54.911Z,21.04
2018-09-05T09:05:58.397Z,21.14
2018-09-05T09:11:02.021Z,21.29
2018-09-05T09:16:05.762Z,21.41
2018-09-05T09:21:09.271Z,21.58
2018-09-05T09:26:12.850Z,21.70
2018-09-05T09:31:22.942Z,21.86
2018-09-05T09:36:26.433Z,22.27
2018-09-05T09:41:29.947Z,22.47
2018-09-05T09:46:33.948Z,22.75
2018-09-05T09:51:37.634Z,23.02
2018-09-05T09:56:41.180Z,23.53
2018-09-05T10:01:49.989Z,23.78
2018-09-05T10:06:58.749Z,23.95
2018-09-05T10:12:07.398Z,23.96
2018-09-05T10:17:16.135Z,24.18
2018-09-05T10:22:19.608Z,24.09
2018-09-05T10:27:23.544Z,23.83
2018-09-05T10:32:27.264Z,24.20
2018-09-05T10:37:30.751Z,24.25
2018-09-05T10:42:34.282Z,24.35
2018-09-05T10:47:37.738Z,24.46
2018-09-05T10:52:41.229Z,24.40
2018-09-05T10:57:44.749Z,24.51
2018-09-05T11:02:48.284Z,25.03
2018-09-05T11:07:51.836Z,25.29
2018-09-05T11:12:55.351Z,25.04
2018-09-05T11:17:58.858Z,24.64
2018-09-05T11:23:02.402Z,24.29
2018-09-05T11:28:05.950Z,25.83
2018-09-05T11:33:09.464Z,25.07
2018-09-05T11:38:12.985Z,24.60
2018-09-05T11:43:16.447Z,27.70
2018-09-05T11:48:19.941Z,37.26
2018-09-05T11:53:24.205Z,40.84
2018-09-05T11:58:27.698Z,42.20
2018-09-05T12:03:31.333Z,38.18
2018-09-05T12:08:34.837Z,40.31
2018-09-05T12:13:38.339Z,42.25
2018-09-05T12:18:41.911Z,42.67
2018-09-05T12:23:45.410Z,44.32
2018-09-05T12:28:48.945Z,45.34
2018-09-05T12:33:52.448Z,44.70
2018-09-05T12:38:56.191Z,45.07
2018-09-05T12:43:59.694Z,41.46
2018-09-05T12:49:03.185Z,38.19
2018-09-05T12:54:07.318Z,32.76
2018-09-05T12:59:10.874Z,30.30
2018-09-05T13:04:14.361Z,28.93
2018-09-05T13:09:17.888Z,28.59
2018-09-05T13:14:21.423Z,29.26
2018-09-05T13:19:24.901Z,34.70
2018-09-05T13:24:28.382Z,34.70
2018-09-05T13:29:32.437Z,32.66
2018-09-05T13:34:35.905Z,31.56
2018-09-05T13:39:41.383Z,31.08
2018-09-05T13:44:44.945Z,34.12
2018-09-05T13:49:48.447Z,32.45
2018-09-05T13:54:52.008Z,30.07
2018-09-05T13:59:55.564Z,29.12
2018-09-05T14:04:59.060Z,29.11
2018-09-05T14:10:03.575Z,29.23
2018-09-05T14:15:07.778Z,28.60
2018-09-05T14:20:11.305Z,28.54
2018-09-05T14:25:14.834Z,28.51
2018-09-05T14:30:18.328Z,28.18
2018-09-05T14:35:21.817Z,28.27
2018-09-05T14:40:25.643Z,27.91
2018-09-05T14:45:29.176Z,27.83
2018-09-05T14:50:32.666Z,27.73
2018-09-05T14:55:36.214Z,27.64
2018-09-05T15:00:40.229Z,27.50
2018-09-05T15:05:43.714Z,27.29
2018-09-05T15:10:47.259Z,27.01
2018-09-05T15:15:50.750Z,26.84
2018-09-05T15:20:54.392Z,26.95
2018-09-05T15:25:58.085Z,27.04
2018-09-05T15:31:01.765Z,27.09
2018-09-05T15:36:05.364Z,27.05
2018-09-05T15:41:08.894Z,27.28
2018-09-05T15:46:12.372Z,27.39
2018-09-05T15:51:16.047Z,27.31
2018-09-05T15:56:19.678Z,27.43
2018-09-05T16:01:23.440Z,27.60
2018-09-05T16:06:26.984Z,27.74
2018-09-05T16:11:30.555Z,27.51
2018-09-05T16:16:34.052Z,27.70
2018-09-05T16:21:37.631Z,27.73
2018-09-05T16:26:41.324Z,27.73
2018-09-05T16:31:44.915Z,27.65
2018-09-05T16:36:48.481Z,27.82
2018-09-05T16:41:52.030Z,27.76
2018-09-05T16:46:55.598Z,27.71
2018-09-05T16:51:59.062Z,27.67
2018-09-05T16:57:03.654Z,27.44
2018-09-05T17:02:07.531Z,27.32
2018-09-05T17:07:11.069Z,27.22
2018-09-05T17:12:14.703Z,27.24
2018-09-05T17:17:18.345Z,27.84
2018-09-05T17:22:21.982Z,26.84
2018-09-05T17:27:25.489Z,25.42
2018-09-05T17:32:29.355Z,25.03
2018-09-05T17:37:32.854Z,24.58
2018-09-05T17:42:36.477Z,24.32
2018-09-05T17:47:40.058Z,23.99
2018-09-05T17:52:43.589Z,23.84
2018-09-05T17:57:47.117Z,23.60
2018-09-05T18:02:50.797Z,23.46
2018-09-05T18:07:54.386Z,23.29
2018-09-05T18:12:57.898Z,23.08
2018-09-05T18:18:01.454Z,23.01
2018-09-05T18:23:05.212Z,22.76
2018-09-05T18:28:08.774Z,22.63
2018-09-05T18:33:12.340Z,22.50
2018-09-05T18:38:22.583Z,22.39
2018-09-05T18:43:26.145Z,22.28
2018-09-05T18:48:29.655Z,22.12
2018-09-05T18:53:33.267Z,22.01
2018-09-05T18:58:36.842Z,21.93
2018-09-05T19:03:40.323Z,21.80
2018-09-05T19:08:43.912Z,21.73
2018-09-05T19:13:47.444Z,21.61
2018-09-05T19:18:51.008Z,21.45
2018-09-05T19:23:54.590Z,21.43
2018-09-05T19:28:58.163Z,21.35
2018-09-05T19:34:01.717Z,21.18
2018-09-05T19:39:07.725Z,20.97
2018-09-05T19:44:12.318Z,20.88
2018-09-05T19:49:16.039Z,20.74
2018-09-05T19:54:23.533Z,20.81
2018-09-05T19:59:27.603Z,20.47
2018-09-05T20:04:31.250Z,20.60
2018-09-05T20:09:34.752Z,20.53
2018-09-05T20:14:38.347Z,20.37
2018-09-05T20:19:41.852Z,20.22
2018-09-05T20:24:45.455Z,20.15
2018-09-05T20:29:49.358Z,19.97
2018-09-05T20:34:52.862Z,19.88
2018-09-05T20:39:56.415Z,19.87
2018-09-05T20:45:00.009Z,19.81
2018-09-05T20:50:03.833Z,19.69
2018-09-05T20:55:07.792Z,19.70
2018-09-05T21:00:11.258Z,19.66
2018-09-05T21:05:14.800Z,19.54
2018-09-05T21:10:18.333Z,19.53
2018-09-05T21:15:21.917Z,19.47
2018-09-05T21:20:25.470Z,19.41
2018-09-05T21:25:29.052Z,19.22
2018-09-05T21:30:32.554Z,19.08
2018-09-05T21:35:36.359Z,19.02
2018-09-05T21:40:40.029Z,18.96
2018-09-05T21:45:43.538Z,18.97
2018-09-05T21:50:47.058Z,18.91
2018-09-05T21:55:50.558Z,18.80
2018-09-05T22:00:54.061Z,18.76
2018-09-05T22:05:57.915Z,18.74
2018-09-05T22:11:35.007Z,18.64
2018-09-05T22:16:38.521Z,18.42
2018-09-05T22:21:42.022Z,18.49
2018-09-05T22:26:45.518Z,18.35
2018-09-05T22:31:49.001Z,18.11
2018-09-05T22:36:52.493Z,18.09
2018-09-05T22:41:56.066Z,18.12
2018-09-05T22:47:10.721Z,18.00
2018-09-05T22:55:04.436Z,17.94
2018-09-05T23:01:20.555Z,17.85
2018-09-05T23:08:42.976Z,18.02
2018-09-05T23:14:02.436Z,17.93
2018-09-05T23:19:45.958Z,17.76
2018-09-05T23:24:49.451Z,17.62
2018-09-05T23:29:52.984Z,17.61
2018-09-05T23:34:57.382Z,17.63
2018-09-05T23:40:00.951Z,17.51
2018-09-05T23:45:04.788Z,17.47
2018-09-05T23:50:08.395Z,17.31
2018-09-05T23:55:12.029Z,17.40
